createdAt,value
2023-01-08T00:01:58.250Z,100.00
2023-01-08T00:04:25.514Z,100.00
2023-01-08T00:06:53.463Z,100.00
2023-01-08T00:09:20.703Z,100.00
2023-01-08T00:11:49.432Z,100.00
2023-01-08T00:14:16.794Z,100.00
2023-01-08T00:16:44.402Z,100.00
2023-01-08T00:19:14.890Z,100.00
2023-01-08T00:21:42.474Z,100.00
2023-01-08T00:24:09.678Z,100.00
2023-01-08T00:26:37.304Z,100.00
2023-01-08T00:29:04.498Z,100.00
2023-01-08T00:31:32.109Z,100.00
2023-01-08T00:33:59.392Z,100.00
2023-01-08T00:36:27.109Z,100.00
2023-01-08T00:38:54.323Z,100.00
2023-01-08T00:41:21.811Z,100.00
2023-01-08T00:43:48.981Z,100.00
2023-01-08T00:46:16.619Z,100.00
2023-01-08T00:48:43.769Z,100.00
2023-01-08T00:51:11.300Z,100.00
2023-01-08T00:53:38.534Z,100.00
2023-01-08T00:56:09.167Z,100.00
2023-01-08T00:58:36.654Z,100.00
2023-01-08T01:01:11.152Z,100.00
2023-01-08T01:03:38.936Z,100.00
2023-01-08T01:06:07.817Z,100.00
2023-01-08T01:08:35.513Z,100.00
2023-01-08T01:11:23.509Z,100.00
2023-01-08T01:13:51.560Z,100.00
2023-01-08T01:16:19.096Z,100.00
2023-01-08T01:18:46.560Z,100.00
2023-01-08T01:21:22.753Z,100.00
2023-01-08T01:23:50.435Z,100.00
2023-01-08T01:26:19.811Z,100.00
2023-01-08T01:28:48.461Z,100.00
2023-01-08T01:31:16.549Z,100.00
2023-01-08T01:33:44.592Z,100.00
2023-01-08T01:36:14.058Z,100.00
2023-01-08T01:38:45.178Z,100.00
2023-01-08T01:41:39.958Z,100.00
2023-01-08T01:44:35.105Z,100.00
2023-01-08T01:47:09.660Z,100.00
2023-01-08T01:49:38.225Z,100.00
2023-01-08T01:52:08.241Z,100.00
2023-01-08T01:54:36.773Z,100.00
2023-01-08T01:57:05.097Z,100.00
2023-01-08T01:59:32.257Z,100.00
2023-01-08T02:02:00.800Z,100.00
2023-01-08T02:04:28.155Z,100.00
2023-01-08T02:07:10.608Z,100.00
2023-01-08T02:09:48.208Z,100.00
2023-01-08T02:12:31.372Z,100.00
2023-01-08T02:15:17.248Z,100.00
2023-01-08T02:17:53.927Z,100.00
2023-01-08T02:20:31.290Z,100.00
2023-01-08T02:23:07.757Z,100.00
2023-01-08T02:26:02.452Z,100.00
2023-01-08T02:28:32.901Z,100.00
2023-01-08T02:31:00.605Z,100.00
2023-01-08T02:33:29.726Z,100.00
2023-01-08T02:36:34.104Z,100.00
2023-01-08T02:39:01.726Z,100.00
2023-01-08T02:41:52.502Z,100.00
2023-01-08T02:44:27.767Z,100.00
2023-01-08T02:46:59.531Z,100.00
2023-01-08T02:49:33.184Z,100.00
2023-01-08T02:52:04.061Z,100.00
2023-01-08T02:54:34.861Z,100.00
2023-01-08T02:57:15.941Z,100.00
2023-01-08T02:59:48.206Z,100.00
2023-01-08T03:02:16.659Z,100.00
2023-01-08T03:04:53.177Z,100.00
2023-01-08T03:07:20.844Z,100.00
2023-01-08T03:09:48.555Z,100.00
2023-01-08T03:12:20.936Z,100.00
2023-01-08T03:14:56.224Z,100.00
2023-01-08T03:17:30.166Z,100.00
2023-01-08T03:20:06.720Z,100.00
2023-01-08T03:22:38.218Z,100.00
2023-01-08T03:25:07.408Z,100.00
2023-01-08T03:27:40.481Z,100.00
2023-01-08T03:30:10.056Z,100.00
2023-01-08T03:32:41.347Z,100.00
2023-01-08T03:35:12.176Z,100.00
2023-01-08T03:37:44.392Z,100.00
2023-01-08T03:40:17.825Z,100.00
2023-01-08T03:42:45.149Z,100.00
2023-01-08T03:45:12.898Z,100.00
2023-01-08T03:47:42.025Z,100.00
2023-01-08T03:50:17.816Z,100.00
2023-01-08T03:52:45.014Z,100.00
2023-01-08T03:55:12.620Z,100.00
2023-01-08T03:57:39.819Z,100.00
2023-01-08T04:00:08.045Z,100.00
2023-01-08T04:02:35.408Z,100.00
2023-01-08T04:05:03.050Z,100.00
2023-01-08T04:07:30.393Z,100.00
2023-01-08T04:09:57.929Z,100.00
2023-01-08T04:12:25.224Z,100.00
2023-01-08T04:14:52.728Z,100.00
2023-01-08T04:17:19.976Z,100.00
2023-01-08T04:19:47.431Z,100.00
2023-01-08T04:22:14.647Z,100.00
2023-01-08T04:24:42.153Z,100.00
2023-01-08T04:27:09.332Z,100.00
2023-01-08T04:29:39.805Z,100.00
2023-01-08T04:32:07.086Z,100.00
2023-01-08T04:34:34.610Z,100.00
2023-01-08T04:37:03.208Z,100.00
2023-01-08T04:39:30.677Z,100.00
2023-01-08T04:41:57.992Z,100.00
2023-01-08T04:44:25.531Z,100.00
2023-01-08T04:46:52.723Z,100.00
2023-01-08T04:49:20.430Z,100.00
2023-01-08T04:51:47.760Z,100.00
2023-01-08T04:54:15.285Z,100.00
2023-01-08T04:56:42.538Z,100.00
2023-01-08T04:59:10.153Z,100.00
2023-01-08T05:01:37.627Z,100.00
2023-01-08T05:04:06.053Z,100.00
2023-01-08T05:06:33.451Z,100.00
2023-01-08T05:09:01.378Z,100.00
2023-01-08T05:11:28.726Z,100.00
2023-01-08T05:13:56.800Z,100.00
2023-01-08T05:16:24.153Z,100.00
2023-01-08T05:18:51.743Z,100.00
2023-01-08T05:21:19.003Z,100.00
2023-01-08T05:23:50.276Z,100.00
2023-01-08T05:26:19.451Z,100.00
2023-01-08T05:28:47.301Z,100.00
2023-01-08T05:31:15.086Z,100.00
2023-01-08T05:33:42.888Z,100.00
2023-01-08T05:36:12.083Z,100.00
2023-01-08T05:38:40.185Z,100.00
2023-01-08T05:41:07.998Z,100.00
2023-01-08T05:43:36.069Z,100.00
2023-01-08T05:46:04.772Z,100.00
2023-01-08T05:48:34.350Z,100.00
2023-01-08T05:51:02.372Z,100.00
2023-01-08T05:53:32.286Z,100.00
2023-01-08T05:56:07.167Z,100.00
2023-01-08T05:58:36.198Z,100.00
2023-01-08T06:01:18.049Z,100.00
2023-01-08T06:03:45.901Z,100.00
2023-01-08T06:06:13.591Z,100.00
2023-01-08T06:08:41.157Z,100.00
2023-01-08T06:11:11.253Z,100.00
2023-01-08T06:13:42.470Z,100.00
2023-01-08T06:16:10.645Z,100.00
2023-01-08T06:18:38.224Z,100.00
2023-01-08T06:21:05.861Z,100.00
2023-01-08T06:23:33.560Z,100.00
2023-01-08T06:26:01.999Z,100.00
2023-01-08T06:28:29.506Z,100.00
2023-01-08T06:31:01.704Z,100.00
2023-01-08T06:33:30.295Z,100.00
2023-01-08T06:36:02.493Z,100.00
2023-01-08T06:38:36.929Z,100.00
2023-01-08T06:41:05.903Z,100.00
2023-01-08T06:43:36.345Z,100.00
2023-01-08T06:46:05.621Z,100.00
2023-01-08T06:48:33.273Z,100.00
2023-01-08T06:51:01.725Z,100.00
2023-01-08T06:53:30.113Z,100.00
2023-01-08T06:55:58.865Z,100.00
2023-01-08T06:58:28.010Z,100.00
2023-01-08T07:00:55.263Z,100.00
2023-01-08T07:03:22.874Z,100.00
2023-01-08T07:05:50.992Z,100.00
2023-01-08T07:08:19.139Z,100.00
2023-01-08T07:10:46.509Z,100.00
2023-01-08T07:13:14.668Z,100.00
2023-01-08T07:15:43.108Z,100.00
2023-01-08T07:18:13.296Z,100.00
2023-01-08T07:20:40.983Z,100.00
2023-01-08T07:23:11.247Z,100.00
2023-01-08T07:25:38.548Z,100.00
2023-01-08T07:28:06.756Z,100.00
2023-01-08T07:30:34.113Z,100.00
2023-01-08T07:33:02.284Z,100.00
2023-01-08T07:35:29.788Z,100.00
2023-01-08T07:37:57.378Z,100.00
2023-01-08T07:40:24.731Z,100.00
2023-01-08T07:43:04.010Z,100.00
2023-01-08T07:45:31.663Z,100.00
2023-01-08T07:48:00.293Z,100.00
2023-01-08T07:50:29.585Z,100.00
2023-01-08T07:52:59.247Z,100.00
2023-01-08T07:55:28.394Z,100.00
2023-01-08T07:57:56.387Z,100.00
2023-01-08T08:00:23.689Z,100.00
2023-01-08T08:02:51.318Z,100.00
2023-01-08T08:05:18.647Z,100.00
2023-01-08T08:07:46.137Z,100.00
2023-01-08T08:10:13.509Z,100.00
2023-01-08T08:12:41.032Z,100.00
2023-01-08T08:15:08.953Z,100.00
2023-01-08T08:17:36.466Z,100.00
2023-01-08T08:20:04.020Z,100.00
2023-01-08T08:22:32.029Z,100.00
2023-01-08T08:24:59.303Z,100.00
2023-01-08T08:27:26.859Z,100.00
2023-01-08T08:29:54.096Z,100.00
2023-01-08T08:32:21.808Z,100.00
2023-01-08T08:34:50.859Z,100.00
2023-01-08T08:37:18.486Z,100.00
2023-01-08T08:39:45.767Z,100.00
2023-01-08T08:42:13.372Z,100.00
2023-01-08T08:44:42.743Z,100.00
2023-01-08T08:47:11.206Z,100.00
2023-01-08T08:49:38.748Z,100.00
2023-01-08T08:52:06.637Z,100.00
2023-01-08T08:54:37.189Z,100.00
2023-01-08T08:57:05.067Z,100.00
2023-01-08T08:59:32.465Z,100.00
2023-01-08T09:02:00.419Z,100.00
2023-01-08T09:04:32.662Z,100.00
2023-01-08T09:07:00.930Z,100.00
2023-01-08T09:09:28.780Z,100.00
2023-01-08T09:11:56.865Z,100.00
2023-01-08T09:14:24.474Z,100.00
2023-01-08T09:16:52.337Z,100.00
2023-01-08T09:19:19.977Z,100.00
2023-01-08T09:21:47.903Z,100.00
2023-01-08T09:24:15.280Z,100.00
2023-01-08T09:26:43.563Z,100.00
2023-01-08T09:29:11.256Z,100.00
2023-01-08T09:31:40.052Z,100.00
2023-01-08T09:34:07.469Z,100.00
2023-01-08T09:36:35.295Z,100.00
2023-01-08T09:39:02.660Z,100.00
2023-01-08T09:41:37.647Z,100.00
2023-01-08T09:44:07.530Z,100.00
2023-01-08T09:46:36.958Z,100.00
2023-01-08T09:49:13.049Z,100.00
2023-01-08T09:51:42.243Z,100.00
2023-01-08T09:54:16.144Z,100.00
2023-01-08T09:56:45.256Z,100.00
2023-01-08T09:59:18.934Z,100.00
2023-01-08T10:01:50.433Z,100.00
2023-01-08T10:04:29.551Z,100.00
2023-01-08T10:07:06.382Z,100.00
2023-01-08T10:09:34.089Z,100.00
2023-01-08T10:12:04.363Z,100.00
2023-01-08T10:14:35.207Z,100.00
2023-01-08T10:17:11.529Z,100.00
2023-01-08T10:19:39.296Z,100.00
2023-01-08T10:22:17.301Z,100.00
2023-01-08T10:24:44.806Z,100.00
2023-01-08T10:27:31.769Z,100.00
2023-01-08T10:30:06.537Z,100.00
2023-01-08T10:32:37.486Z,100.00
2023-01-08T10:35:07.014Z,100.00
2023-01-08T10:37:41.267Z,100.00
2023-01-08T10:40:23.398Z,100.00
2023-01-08T10:42:53.538Z,100.00
2023-01-08T10:45:24.919Z,100.00
2023-01-08T10:48:00.385Z,100.00
2023-01-08T10:50:30.488Z,97.42
2023-01-08T10:53:26.351Z,94.07
2023-01-08T10:56:22.478Z,94.14
2023-01-08T10:59:15.262Z,92.96
2023-01-08T11:01:57.800Z,97.30
2023-01-08T11:04:36.583Z,97.01
2023-01-08T11:07:07.417Z,98.29
2023-01-08T11:09:46.198Z,98.09
2023-01-08T11:12:36.803Z,97.82
2023-01-08T11:15:08.246Z,99.67
2023-01-08T11:17:39.123Z,100.00
2023-01-08T11:20:20.617Z,100.00
2023-01-08T11:22:48.612Z,100.00
2023-01-08T11:25:27.831Z,100.00
2023-01-08T11:27:57.587Z,100.00
2023-01-08T11:30:28.459Z,100.00
2023-01-08T11:36:30.622Z,92.19
2023-01-08T11:38:58.223Z,81.59
2023-01-08T11:41:39.179Z,80.89
2023-01-08T11:44:15.490Z,80.46
2023-01-08T11:47:03.169Z,75.17
2023-01-08T11:49:47.244Z,69.48
2023-01-08T11:52:41.993Z,66.19
2023-01-08T11:55:09.723Z,69.82
2023-01-08T11:57:36.899Z,68.43
2023-01-08T12:00:09.155Z,67.26
2023-01-08T12:02:48.415Z,64.02
2023-01-08T12:05:35.109Z,62.74
2023-01-08T12:08:02.302Z,65.07
2023-01-08T12:10:44.672Z,66.36
2023-01-08T12:13:52.486Z,66.51
2023-01-08T12:16:29.195Z,65.15
2023-01-08T12:19:27.911Z,62.66
2023-01-08T12:22:34.306Z,62.53
2023-01-08T12:25:33.077Z,63.35
2023-01-08T12:28:18.419Z,62.59
2023-01-08T12:31:01.545Z,62.47
2023-01-08T12:33:48.310Z,62.85
2023-01-08T12:36:28.905Z,63.60
2023-01-08T12:39:30.729Z,63.78
2023-01-08T12:42:18.786Z,63.51
2023-01-08T12:44:47.827Z,63.66
2023-01-08T12:47:21.519Z,63.86
2023-01-08T12:49:59.688Z,62.75
2023-01-08T12:52:39.296Z,64.47
2023-01-08T12:55:28.348Z,66.47
2023-01-08T12:58:10.716Z,71.62
2023-01-08T13:00:44.675Z,78.30
2023-01-08T13:03:18.592Z,84.49
2023-01-08T13:05:46.201Z,89.48
2023-01-08T13:08:49.379Z,97.50
2023-01-08T13:11:28.772Z,100.00
2023-01-08T13:14:09.379Z,100.00
2023-01-08T13:16:46.386Z,100.00
2023-01-08T13:19:28.737Z,100.00
2023-01-08T13:21:58.861Z,100.00
2023-01-08T13:24:36.584Z,100.00
2023-01-08T13:27:19.288Z,100.00
2023-01-08T13:29:51.395Z,100.00
2023-01-08T13:32:37.446Z,100.00
2023-01-08T13:35:16.186Z,100.00
2023-01-08T13:37:47.386Z,100.00
2023-01-08T13:40:39.750Z,100.00
2023-01-08T13:43:19.484Z,100.00
2023-01-08T13:46:02.147Z,100.00
2023-01-08T13:48:38.034Z,100.00
2023-01-08T13:51:06.118Z,100.00
2023-01-08T13:53:39.529Z,100.00
2023-01-08T13:56:09.046Z,100.00
2023-01-08T13:58:51.762Z,100.00
2023-01-08T14:01:20.497Z,100.00
2023-01-08T14:03:50.264Z,100.00
2023-01-08T14:06:22.920Z,100.00
2023-01-08T14:09:02.738Z,100.00
2023-01-08T14:11:37.499Z,100.00
2023-01-08T14:14:05.587Z,100.00
2023-01-08T14:16:33.894Z,100.00
2023-01-08T14:19:02.165Z,100.00
2023-01-08T14:21:31.481Z,100.00
2023-01-08T14:23:59.328Z,100.00
2023-01-08T14:26:39.022Z,100.00
2023-01-08T14:29:20.189Z,100.00
2023-01-08T14:31:52.825Z,100.00
2023-01-08T14:34:26.190Z,100.00
2023-01-08T14:36:55.461Z,100.00
2023-01-08T14:39:34.179Z,100.00
2023-01-08T14:42:33.336Z,100.00
2023-01-08T14:45:20.531Z,100.00
2023-01-08T14:47:51.733Z,100.00
2023-01-08T14:50:37.927Z,100.00
2023-01-08T14:53:22.047Z,100.00
2023-01-08T14:55:55.428Z,100.00
2023-01-08T14:58:27.077Z,100.00
2023-01-08T15:01:02.856Z,100.00
2023-01-08T15:03:36.979Z,100.00
2023-01-08T15:06:06.000Z,100.00
2023-01-08T15:08:58.543Z,100.00
2023-01-08T15:11:34.009Z,100.00
2023-01-08T15:14:13.640Z,100.00
2023-01-08T15:16:43.650Z,100.00
2023-01-08T15:19:23.088Z,100.00
2023-01-08T15:21:53.629Z,100.00
2023-01-08T15:24:25.267Z,100.00
2023-01-08T15:26:54.208Z,100.00
2023-01-08T15:29:33.492Z,100.00
2023-01-08T15:32:14.146Z,100.00
2023-01-08T15:34:46.248Z,100.00
2023-01-08T15:37:15.518Z,100.00
2023-01-08T15:39:43.378Z,100.00
2023-01-08T15:42:38.671Z,100.00
2023-01-08T15:45:18.258Z,100.00
2023-01-08T15:47:46.060Z,100.00
2023-01-08T15:50:14.526Z,100.00
2023-01-08T15:52:43.990Z,100.00
2023-01-08T15:55:18.176Z,100.00
2023-01-08T15:57:45.995Z,100.00
2023-01-08T16:00:15.594Z,100.00
2023-01-08T16:02:46.959Z,100.00
2023-01-08T16:05:17.788Z,100.00
2023-01-08T16:07:46.774Z,100.00
2023-01-08T16:10:17.000Z,100.00
2023-01-08T16:12:47.619Z,100.00
2023-01-08T16:15:16.065Z,100.00
2023-01-08T16:17:44.462Z,100.00
2023-01-08T16:20:13.574Z,100.00
2023-01-08T16:22:41.666Z,100.00
2023-01-08T16:25:09.552Z,100.00
2023-01-08T16:27:38.560Z,100.00
2023-01-08T16:30:08.131Z,100.00
2023-01-08T16:32:35.880Z,100.00
2023-01-08T16:35:03.342Z,100.00
2023-01-08T16:37:32.019Z,100.00
2023-01-08T16:39:59.242Z,100.00
2023-01-08T16:42:27.085Z,100.00
2023-01-08T16:44:54.322Z,100.00
2023-01-08T16:47:22.039Z,100.00
2023-01-08T16:49:50.622Z,100.00
2023-01-08T16:52:18.748Z,100.00
2023-01-08T16:54:46.633Z,100.00
2023-01-08T16:57:14.563Z,100.00
2023-01-08T16:59:41.970Z,100.00
2023-01-08T17:02:10.678Z,100.00
2023-01-08T17:04:38.242Z,100.00
2023-01-08T17:07:06.049Z,100.00
2023-01-08T17:09:33.590Z,100.00
2023-01-08T17:12:01.470Z,100.00
2023-01-08T17:14:28.812Z,100.00
2023-01-08T17:16:56.591Z,100.00
2023-01-08T17:19:23.884Z,100.00
2023-01-08T17:21:51.957Z,100.00
2023-01-08T17:24:19.392Z,100.00
2023-01-08T17:26:47.086Z,100.00
2023-01-08T17:29:14.263Z,100.00
2023-01-08T17:31:41.844Z,100.00
2023-01-08T17:34:12.906Z,100.00
2023-01-08T17:36:40.631Z,100.00
2023-01-08T17:39:09.374Z,100.00
2023-01-08T17:41:55.758Z,100.00
2023-01-08T17:44:26.612Z,100.00
2023-01-08T17:46:54.235Z,100.00
2023-01-08T17:49:21.518Z,100.00
2023-01-08T17:51:49.115Z,100.00
2023-01-08T17:54:17.358Z,100.00
2023-01-08T17:56:45.044Z,100.00
2023-01-08T17:59:16.934Z,100.00
2023-01-08T18:01:45.713Z,100.00
2023-01-08T18:04:14.779Z,100.00
2023-01-08T18:06:43.133Z,100.00
2023-01-08T18:09:12.851Z,100.00
2023-01-08T18:11:42.144Z,100.00
2023-01-08T18:14:11.816Z,100.00
2023-01-08T18:16:40.432Z,100.00
2023-01-08T18:19:07.660Z,100.00
2023-01-08T18:21:35.472Z,100.00
2023-01-08T18:24:02.773Z,100.00
2023-01-08T18:26:30.408Z,100.00
2023-01-08T18:28:57.532Z,100.00
2023-01-08T18:31:25.236Z,100.00
2023-01-08T18:33:53.171Z,100.00
2023-01-08T18:36:21.235Z,100.00
2023-01-08T18:38:49.386Z,100.00
2023-01-08T18:41:37.909Z,100.00
2023-01-08T18:44:07.258Z,100.00
2023-01-08T18:46:35.823Z,100.00
2023-01-08T18:49:03.925Z,100.00
2023-01-08T18:51:31.487Z,100.00
2023-01-08T18:53:59.073Z,100.00
2023-01-08T18:56:30.370Z,100.00
2023-01-08T18:58:58.124Z,100.00
2023-01-08T19:01:26.304Z,100.00
2023-01-08T19:03:53.626Z,100.00
2023-01-08T19:06:22.839Z,100.00
2023-01-08T19:08:50.380Z,100.00
2023-01-08T19:11:18.703Z,100.00
2023-01-08T19:13:46.048Z,100.00
2023-01-08T19:16:15.212Z,100.00
2023-01-08T19:18:42.721Z,100.00
2023-01-08T19:21:14.902Z,100.00
2023-01-08T19:23:42.194Z,100.00
2023-01-08T19:26:11.594Z,100.00
2023-01-08T19:28:39.275Z,100.00
2023-01-08T19:31:08.267Z,100.00
2023-01-08T19:33:35.659Z,100.00
2023-01-08T19:36:11.391Z,100.00
2023-01-08T19:38:40.420Z,100.00
2023-01-08T19:41:27.546Z,100.00
2023-01-08T19:43:55.827Z,100.00
2023-01-08T19:46:23.824Z,100.00
2023-01-08T19:48:51.255Z,100.00
2023-01-08T19:51:19.491Z,100.00
2023-01-08T19:53:46.857Z,100.00
2023-01-08T19:56:15.185Z,100.00
2023-01-08T19:58:43.245Z,100.00
2023-01-08T20:01:15.358Z,100.00
2023-01-08T20:03:43.349Z,100.00
2023-01-08T20:06:17.626Z,100.00
2023-01-08T20:08:46.363Z,100.00
2023-01-08T20:11:16.875Z,100.00
2023-01-08T20:13:44.514Z,100.00
2023-01-08T20:16:14.624Z,100.00
2023-01-08T20:18:42.643Z,100.00
2023-01-08T20:21:16.699Z,100.00
2023-01-08T20:23:45.427Z,100.00
2023-01-08T20:26:15.835Z,100.00
2023-01-08T20:28:44.854Z,100.00
2023-01-08T20:31:17.998Z,100.00
2023-01-08T20:33:45.710Z,100.00
2023-01-08T20:36:16.963Z,100.00
2023-01-08T20:38:45.909Z,100.00
2023-01-08T20:41:13.680Z,100.00
2023-01-08T20:43:41.191Z,100.00
2023-01-08T20:46:12.022Z,100.00
2023-01-08T20:48:47.005Z,100.00
2023-01-08T20:51:16.055Z,100.00
2023-01-08T20:53:43.564Z,100.00
2023-01-08T20:56:13.897Z,100.00
2023-01-08T20:58:44.224Z,100.00
2023-01-08T21:01:17.617Z,100.00
2023-01-08T21:03:46.351Z,100.00
2023-01-08T21:06:16.833Z,100.00
2023-01-08T21:08:45.695Z,100.00
2023-01-08T21:11:15.001Z,100.00
2023-01-08T21:13:43.147Z,100.00
2023-01-08T21:16:17.491Z,100.00
2023-01-08T21:18:47.710Z,100.00
2023-01-08T21:21:21.521Z,100.00
2023-01-08T21:23:49.270Z,100.00
2023-01-08T21:26:18.084Z,100.00
2023-01-08T21:28:45.770Z,100.00
2023-01-08T21:31:16.760Z,100.00
2023-01-08T21:33:47.736Z,100.00
2023-01-08T21:36:19.502Z,100.00
2023-01-08T21:38:49.564Z,100.00
2023-01-08T21:41:41.389Z,100.00
2023-01-08T21:44:36.856Z,100.00
2023-01-08T21:47:07.193Z,100.00
2023-01-08T21:49:36.280Z,100.00
2023-01-08T21:52:23.350Z,100.00
2023-01-08T21:54:51.521Z,100.00
2023-01-08T21:57:19.463Z,100.00
2023-01-08T21:59:49.761Z,100.00
2023-01-08T22:02:19.823Z,100.00
2023-01-08T22:04:47.427Z,100.00
2023-01-08T22:07:16.929Z,100.00
2023-01-08T22:09:44.246Z,100.00
2023-01-08T22:12:14.237Z,100.00
2023-01-08T22:14:41.441Z,100.00
2023-01-08T22:17:09.144Z,100.00
2023-01-08T22:19:39.700Z,100.00
2023-01-08T22:22:10.407Z,100.00
2023-01-08T22:24:39.578Z,100.00
2023-01-08T22:27:08.599Z,100.00
2023-01-08T22:29:37.406Z,100.00
2023-01-08T22:32:05.398Z,100.00
2023-01-08T22:34:34.438Z,100.00
2023-01-08T22:37:02.782Z,100.00
2023-01-08T22:39:30.465Z,100.00
2023-01-08T22:41:58.113Z,100.00
2023-01-08T22:44:25.364Z,100.00
2023-01-08T22:46:54.384Z,100.00
2023-01-08T22:49:21.689Z,100.00
2023-01-08T22:51:49.370Z,100.00
2023-01-08T22:54:18.245Z,100.00
2023-01-08T22:56:45.794Z,100.00
2023-01-08T22:59:13.096Z,100.00
2023-01-08T23:01:40.672Z,100.00
2023-01-08T23:04:08.101Z,100.00
2023-01-08T23:06:36.051Z,100.00
2023-01-08T23:09:03.243Z,100.00
2023-01-08T23:11:30.934Z,100.00
2023-01-08T23:14:00.321Z,100.00
2023-01-08T23:16:30.553Z,100.00
2023-01-08T23:18:58.151Z,100.00
2023-01-08T23:21:27.214Z,100.00
2023-01-08T23:23:54.691Z,100.00
2023-01-08T23:26:28.449Z,100.00
2023-01-08T23:28:57.035Z,100.00
2023-01-08T23:31:28.155Z,100.00
2023-01-08T23:33:55.765Z,100.00
2023-01-08T23:36:23.992Z,100.00
2023-01-08T23:38:54.068Z,100.00
2023-01-08T23:41:26.267Z,100.00
2023-01-08T23:43:54.825Z,100.00
2023-01-08T23:46:22.374Z,100.00
2023-01-08T23:48:51.157Z,100.00
2023-01-08T23:51:18.796Z,100.00
2023-01-08T23:53:46.005Z,100.00
2023-01-08T23:56:13.702Z,100.00
2023-01-08T23:58:41.063Z,100.00
